Time;durP1;ratioP1;P1;durP2;ratioP2;P2;SDS_P1;SDS_P2;PMS_P1;PMS_P2;Temp;Humidity;BMP_temperature;BMP_pressure;BME280_temperature;BME280_humidity;BME280_pressure;Samples;Min_cycle;Max_cycle;Signal;HPM_P1;HPM_P2
2023/03/24 00:02:27;;;;;;;2.55;2.33;;;13.20;99.90;;;;;;5092549;28;20107;-74
2023/03/24 00:04:57;;;;;;;2.55;0.95;;;13.30;99.90;;;;;;5092300;28;20441;-76
2023/03/24 00:07:24;;;;;;;2.70;0.50;;;13.30;99.90;;;;;;5093027;28;20035;-71
2023/03/24 00:09:49;;;;;;;2.58;0.95;;;13.40;99.90;;;;;;5096423;28;20028;-73
2023/03/24 00:12:17;;;;;;;0.85;0.57;;;13.40;99.90;;;;;;5096608;28;20516;-74
2023/03/24 00:14:45;;;;;;;1.88;1.15;;;13.50;99.90;;;;;;5096710;28;20035;-72
2023/03/24 00:17:12;;;;;;;1.58;0.77;;;13.40;99.90;;;;;;5095319;28;20067;-73
2023/03/24 00:19:39;;;;;;;8.35;0.43;;;13.40;99.90;;;;;;5096220;28;20035;-73
2023/03/24 00:22:06;;;;;;;0.73;0.73;;;13.40;99.90;;;;;;5096419;28;20029;-73
2023/03/24 00:24:33;;;;;;;2.75;1.10;;;13.40;99.90;;;;;;5096394;28;20384;-71
2023/03/24 00:26:59;;;;;;;0.80;0.80;;;13.40;99.90;;;;;;5096244;28;20461;-73
2023/03/24 00:29:26;;;;;;;2.65;1.45;;;13.50;99.90;;;;;;5095285;28;20089;-73
2023/03/24 00:31:52;;;;;;;2.47;1.35;;;13.40;99.90;;;;;;5095992;28;20016;-73
2023/03/24 00:34:20;;;;;;;5.43;1.23;;;13.40;99.90;;;;;;5089788;28;20115;-72
2023/03/24 00:36:50;;;;;;;4.03;1.38;;;13.30;99.90;;;;;;5091829;28;20031;-70
2023/03/24 00:39:18;;;;;;;4.03;1.77;;;13.30;99.90;;;;;;5094471;28;20036;-73
2023/03/24 00:41:46;;;;;;;0.88;0.70;;;13.30;99.90;;;;;;5094668;28;20084;-72
2023/03/24 00:44:17;;;;;;;2.10;1.45;;;13.30;99.90;;;;;;5096054;28;20031;-71
2023/03/24 00:46:55;;;;;;;1.90;0.98;;;13.40;99.90;;;;;;5094733;28;20028;-73
2023/03/24 00:49:40;;;;;;;6.38;1.48;;;13.40;99.90;;;;;;5095755;28;20028;-72
2023/03/24 00:52:09;;;;;;;1.48;1.17;;;13.40;99.90;;;;;;5094247;28;20502;-74
2023/03/24 00:54:37;;;;;;;4.70;1.10;;;13.50;99.90;;;;;;5094723;28;20040;-73
2023/03/24 00:57:03;;;;;;;2.20;1.65;;;13.50;99.90;;;;;;5094433;28;20109;-71
2023/03/24 00:59:29;;;;;;;1.77;1.23;;;13.40;99.90;;;;;;5094716;28;20028;-72
2023/03/24 01:01:56;;;;;;;1.63;1.00;;;13.40;99.90;;;;;;5077037;28;20643;-73
2023/03/24 01:04:25;;;;;;;1.08;0.40;;;13.30;99.90;;;;;;5094309;28;20509;-73
2023/03/24 01:06:53;;;;;;;1.83;0.90;;;13.30;99.90;;;;;;5094269;28;20040;-73
2023/03/24 01:09:20;;;;;;;2.67;1.27;;;13.30;99.90;;;;;;5094341;28;20028;-72
2023/03/24 01:11:46;;;;;;;2.72;1.75;;;13.40;99.90;;;;;;5094055;28;20089;-72
2023/03/24 01:14:13;;;;;;;5.43;1.52;;;13.50;99.90;;;;;;5094177;28;20082;-72
2023/03/24 01:16:40;;;;;;;1.15;0.93;;;13.50;99.90;;;;;;5095051;28;20024;-75
2023/03/24 01:19:08;;;;;;;3.67;1.38;;;13.50;99.90;;;;;;5094758;28;20373;-75
2023/03/24 01:21:35;;;;;;;3.35;1.17;;;13.50;99.90;;;;;;5094029;28;20032;-72
2023/03/24 01:24:03;;;;;;;1.77;1.10;;;13.50;99.90;;;;;;5093926;28;20062;-75
2023/03/24 01:26:29;;;;;;;3.90;1.70;;;13.40;99.90;;;;;;5089325;28;20031;-76
2023/03/24 01:28:56;;;;;;;2.17;1.05;;;13.30;99.90;;;;;;5093840;28;20024;-75
2023/03/24 01:31:22;;;;;;;2.25;1.38;;;13.20;99.90;;;;;;5094976;28;20020;-76
2023/03/24 01:33:48;;;;;;;1.33;0.60;;;13.30;99.90;;;;;;5093636;28;20480;-72
2023/03/24 01:36:14;;;;;;;3.60;1.85;;;13.20;99.90;;;;;;5095164;28;20035;-76
2023/03/24 01:38:40;;;;;;;3.85;1.88;;;13.20;99.90;;;;;;5093349;28;20059;-74
2023/03/24 01:41:06;;;;;;;3.95;1.52;;;13.30;99.90;;;;;;5094839;28;20071;-77
2023/03/24 01:43:34;;;;;;;2.50;1.40;;;13.20;99.90;;;;;;5094752;28;20024;-71
2023/03/24 01:46:14;;;;;;;1.42;0.93;;;13.20;99.90;;;;;;5093358;28;20039;-75
2023/03/24 01:48:49;;;;;;;0.77;0.77;;;13.10;99.90;;;;;;5093258;28;20024;-74
2023/03/24 01:51:18;;;;;;;1.55;0.90;;;13.00;99.90;;;;;;5094954;28;20056;-74
2023/03/24 01:54:00;;;;;;;6.68;1.95;;;12.90;99.90;;;;;;5076333;28;20071;-71
2023/03/24 01:56:27;;;;;;;3.10;1.17;;;12.80;99.90;;;;;;5093585;28;20028;-71
2023/03/24 01:59:00;;;;;;;4.50;1.02;;;12.60;99.90;;;;;;5093200;28;20028;-71
2023/03/24 02:02:01;;;;;;;1.58;1.20;;;12.40;99.90;;;;;;5085590;28;20040;-74
2023/03/24 02:04:52;;;;;;;1.23;0.90;;;12.30;99.90;;;;;;5093351;28;20043;-71
2023/03/24 02:07:54;;;;;;;0.22;0.22;;;12.20;99.90;;;;;;5092808;28;20039;-72
2023/03/24 02:10:22;;;;;;;0.20;0.20;;;12.10;99.90;;;;;;5093161;28;20036;-71
2023/03/24 02:12:48;;;;;;;1.50;0.82;;;12.10;99.90;;;;;;5094006;28;20024;-72
2023/03/24 02:15:17;;;;;;;3.15;0.63;;;12.00;99.90;;;;;;5092655;28;20055;-71
2023/03/24 02:18:01;;;;;;;0.13;0.13;;;11.80;99.90;;;;;;5092999;28;20032;-71
2023/03/24 02:20:42;;;;;;;0.45;0.45;;;11.80;99.90;;;;;;5092964;28;20028;-71
2023/03/24 02:23:23;;;;;;;2.27;0.40;;;11.70;99.90;;;;;;5092672;28;20438;-71
2023/03/24 02:26:11;;;;;;;0.73;0.32;;;11.70;99.90;;;;;;5093002;28;20127;-71
2023/03/24 02:28:49;;;;;;;2.13;0.77;;;11.70;99.90;;;;;;5093958;28;20047;-71
2023/03/24 02:31:27;;;;;;;1.60;0.30;;;11.60;99.90;;;;;;5091570;28;20034;-71
2023/03/24 02:33:54;;;;;;;0.80;0.38;;;11.60;99.90;;;;;;5092559;28;20507;-71
2023/03/24 02:36:23;;;;;;;9.55;1.15;;;11.60;99.90;;;;;;5092643;28;20032;-71
2023/03/24 02:39:16;;;;;;;1.10;0.70;;;11.50;99.90;;;;;;5092314;28;20032;-71
2023/03/24 02:42:06;;;;;;;8.50;1.05;;;11.50;99.90;;;;;;5092355;28;20036;-71
2023/03/24 02:44:50;;;;;;;4.50;0.77;;;11.40;99.90;;;;;;5086747;28;20047;-72
2023/03/24 02:47:34;;;;;;;5.10;1.52;;;11.40;99.90;;;;;;5092321;28;20024;-72
2023/03/24 02:50:12;;;;;;;2.97;1.63;;;11.40;99.90;;;;;;5092331;28;20087;-75
2023/03/24 02:53:25;;;;;;;11.13;2.15;;;11.30;99.90;;;;;;5075395;28;20073;-74
2023/03/24 02:56:20;;;;;;;4.00;1.70;;;11.30;99.90;;;;;;5071001;28;20040;-75
2023/03/24 02:58:59;;;;;;;4.38;1.70;;;11.30;99.90;;;;;;5053960;28;20079;-71
2023/03/24 03:01:40;;;;;;;2.50;1.17;;;11.20;99.90;;;;;;5084707;28;20032;-73
2023/03/24 03:04:53;;;;;;;0.65;0.55;;;11.10;99.90;;;;;;5091717;28;20372;-74
2023/03/24 03:07:25;;;;;;;2.08;0.75;;;11.10;99.90;;;;;;5093484;28;20024;-73
2023/03/24 03:09:59;;;;;;;6.85;1.02;;;11.00;99.90;;;;;;5092158;28;20154;-76
2023/03/24 03:12:27;;;;;;;1.13;0.65;;;11.10;99.90;;;;;;5091593;28;20028;-73
2023/03/24 03:15:05;;;;;;;3.15;1.00;;;11.10;99.90;;;;;;5091741;28;20078;-73
2023/03/24 03:17:38;;;;;;;11.27;0.57;;;11.10;99.90;;;;;;5093172;28;20028;-73
2023/03/24 03:20:14;;;;;;;13.35;2.40;;;11.10;99.90;;;;;;5091722;28;20024;-74
2023/03/24 03:22:49;;;;;;;5.50;1.42;;;11.00;99.90;;;;;;5093223;28;20127;-74
2023/03/24 03:25:19;;;;;;;7.03;1.58;;;11.00;99.90;;;;;;5092690;28;20430;-74
2023/03/24 03:27:46;;;;;;;17.00;1.52;;;11.00;99.90;;;;;;5091435;28;20020;-74
2023/03/24 03:30:32;;;;;;;5.47;1.27;;;11.00;99.90;;;;;;5091569;28;20024;-73
2023/03/24 03:33:24;;;;;;;3.55;0.95;;;11.00;99.90;;;;;;5091881;28;20028;-73
2023/03/24 03:36:01;;;;;;;5.28;1.10;;;11.10;99.90;;;;;;5092822;28;20028;-73
2023/03/24 03:38:46;;;;;;;0.63;0.63;;;11.10;99.90;;;;;;5091135;28;20028;-73
2023/03/24 03:41:14;;;;;;;1.30;0.70;;;11.20;99.90;;;;;;5091216;28;20400;-74
2023/03/24 03:43:40;;;;;;;15.43;1.27;;;11.20;99.90;;;;;;5092432;28;20035;-72
2023/03/24 03:46:07;;;;;;;7.68;1.67;;;11.10;99.90;;;;;;5074781;28;20113;-74
2023/03/24 03:48:37;;;;;;;7.90;1.38;;;11.00;99.90;;;;;;5091284;28;20024;-74
2023/03/24 03:51:03;;;;;;;2.00;0.73;;;11.10;99.90;;;;;;5091472;28;20024;-72
2023/03/24 03:53:51;;;;;;;1.20;0.45;;;11.00;99.90;;;;;;5091445;28;20062;-72
2023/03/24 03:56:21;;;;;;;0.85;0.57;;;11.00;99.90;;;;;;5070770;28;20035;-72
2023/03/24 03:58:57;;;;;;;4.05;0.85;;;10.90;99.90;;;;;;5071203;28;20066;-71
2023/03/24 04:01:26;;;;;;;2.60;1.17;;;10.90;99.90;;;;;;5070852;28;20017;-72
2023/03/24 04:04:45;;;;;;;4.50;1.52;;;10.90;99.90;;;;;;5071250;28;20060;-72
2023/03/24 04:07:32;;;;;;;2.45;0.63;;;10.80;99.90;;;;;;5071172;28;20546;-72
2023/03/24 04:10:34;;;;;;;0.00;0.00;;;10.80;99.90;;;;;;5071009;28;20037;-72
2023/03/24 04:13:12;;;;;;;1.02;0.65;;;10.80;99.90;;;;;;5054514;28;20439;-73
2023/03/24 04:16:04;;;;;;;4.38;0.77;;;10.80;99.90;;;;;;5059221;28;20040;-73
2023/03/24 04:19:07;;;;;;;6.03;1.30;;;10.70;99.90;;;;;;5050148;28;20029;-73
2023/03/24 04:21:50;;;;;;;4.50;1.17;;;10.60;99.90;;;;;;5057619;28;20135;-72
2023/03/24 04:24:33;;;;;;;2.45;0.65;;;10.60;99.90;;;;;;5070690;28;20032;-72
2023/03/24 04:27:25;;;;;;;5.43;1.33;;;10.60;99.90;;;;;;5070825;28;20024;-72
2023/03/24 04:30:10;;;;;;;16.42;1.23;;;10.50;99.90;;;;;;5071112;28;20506;-71
2023/03/24 04:32:53;;;;;;;18.75;2.53;;;10.50;99.90;;;;;;5070712;28;20362;-72
2023/03/24 04:35:33;;;;;;;3.92;1.48;;;10.40;99.90;;;;;;5070842;28;20104;-72
2023/03/24 04:38:22;;;;;;;8.27;1.60;;;10.50;99.90;;;;;;5056919;28;20033;-72
2023/03/24 04:40:55;;;;;;;4.18;1.17;;;10.50;99.90;;;;;;5070385;28;20407;-70
2023/03/24 04:43:26;;;;;;;3.95;0.93;;;10.50;99.90;;;;;;5070811;28;20028;-70
2023/03/24 04:45:56;;;;;;;1.73;1.60;;;10.40;99.90;;;;;;5071738;28;20044;-70
2023/03/24 04:48:38;;;;;;;7.53;2.20;;;10.50;99.90;;;;;;5053249;28;20017;-72
2023/03/24 04:51:11;;;;;;;24.10;2.63;;;10.50;99.90;;;;;;5066321;28;20033;-71
2023/03/24 04:53:56;;;;;;;4.38;1.05;;;10.50;99.90;;;;;;5071439;28;20033;-72
2023/03/24 04:56:52;;;;;;;1.50;0.63;;;10.70;99.90;;;;;;5074075;28;20384;-72
2023/03/24 04:59:31;;;;;;;1.00;0.80;;;10.60;99.90;;;;;;5074017;28;20040;-72
2023/03/24 05:01:57;;;;;;;10.52;1.85;;;10.60;99.90;;;;;;5074058;28;20033;-71
2023/03/24 05:04:43;;;;;;;6.18;1.17;;;10.50;99.90;;;;;;5071105;28;20040;-72
2023/03/24 05:07:16;;;;;;;0.45;0.43;;;10.50;99.90;;;;;;5073909;28;20052;-71
2023/03/24 05:09:45;;;;;;;1.08;0.38;;;10.50;99.90;;;;;;5073788;28;20047;-71
2023/03/24 05:12:11;;;;;;;5.68;1.27;;;10.50;99.90;;;;;;5074921;28;20103;-71
2023/03/24 05:15:00;;;;;;;1.08;0.85;;;10.40;99.90;;;;;;5074129;28;20044;-71
2023/03/24 05:17:26;;;;;;;11.10;3.60;;;10.40;99.90;;;;;;5073768;28;20078;-71
2023/03/24 05:19:53;;;;;;;12.43;2.47;;;10.40;99.90;;;;;;5073950;28;20031;-71
2023/03/24 05:22:18;;;;;;;8.82;0.90;;;10.40;99.90;;;;;;5073524;28;20021;-71
2023/03/24 05:24:44;;;;;;;0.63;0.28;;;10.40;99.90;;;;;;5073439;28;20514;-71
2023/03/24 05:27:10;;;;;;;4.82;0.40;;;10.50;99.90;;;;;;5073567;28;20031;-71
2023/03/24 05:29:36;;;;;;;1.65;0.75;;;10.40;99.90;;;;;;5073721;28;20032;-71
2023/03/24 05:32:01;;;;;;;17.13;3.03;;;10.30;99.90;;;;;;5073251;28;20028;-71
2023/03/24 05:34:28;;;;;;;16.83;6.13;;;10.30;99.90;;;;;;5073524;28;20021;-71
2023/03/24 05:37:16;;;;;;;2.97;0.55;;;10.30;99.90;;;;;;5074212;28;20569;-72
2023/03/24 05:39:45;;;;;;;0.90;0.73;;;10.20;99.90;;;;;;5072781;28;20029;-71
2023/03/24 05:42:31;;;;;;;10.65;1.50;;;10.30;99.90;;;;;;5073374;28;20033;-72
2023/03/24 05:44:59;;;;;;;1.88;0.65;;;10.20;99.90;;;;;;5073531;28;20074;-71
2023/03/24 05:47:26;;;;;;;5.07;2.28;;;10.20;99.90;;;;;;5073052;28;20119;-73
2023/03/24 05:49:53;;;;;;;4.60;1.58;;;10.10;99.90;;;;;;5073441;28;20491;-71
2023/03/24 05:52:22;;;;;;;14.27;2.17;;;10.20;99.90;;;;;;5074183;28;20053;-71
2023/03/24 05:54:50;;;;;;;4.15;1.35;;;10.20;99.90;;;;;;5073230;28;20032;-71
2023/03/24 05:57:23;;;;;;;3.42;1.13;;;10.20;99.90;;;;;;5072980;28;20119;-72
2023/03/24 06:00:15;;;;;;;14.38;2.17;;;10.30;99.90;;;;;;5070248;28;20045;-72
2023/03/24 06:02:50;;;;;;;21.48;1.83;;;10.30;99.90;;;;;;5057286;28;20024;-72
2023/03/24 06:05:34;;;;;;;12.60;1.08;;;10.40;99.90;;;;;;5072658;28;20453;-72
2023/03/24 06:08:00;;;;;;;2.42;1.25;;;10.30;99.90;;;;;;5072567;28;20054;-73
2023/03/24 06:10:28;;;;;;;1.70;1.58;;;10.30;99.90;;;;;;5072659;28;20021;-73
2023/03/24 06:12:55;;;;;;;2.17;1.85;;;10.30;99.90;;;;;;5072923;28;20024;-72
2023/03/24 06:15:26;;;;;;;8.65;1.88;;;10.30;99.90;;;;;;5073879;28;20421;-72
2023/03/24 06:17:54;;;;;;;0.20;0.20;;;10.20;99.90;;;;;;5072858;28;20492;-73
2023/03/24 06:20:32;;;;;;;2.13;0.75;;;10.20;99.90;;;;;;5072627;28;20063;-74
2023/03/24 06:23:06;;;;;;;2.03;1.25;;;10.30;99.90;;;;;;5072277;28;20074;-72
2023/03/24 06:26:06;;;;;;;1.60;0.22;;;10.30;99.90;;;;;;5070006;28;20509;-73
2023/03/24 06:28:33;;;;;;;14.25;1.30;;;10.50;99.90;;;;;;5072175;28;20029;-76
2023/03/24 06:31:04;;;;;;;1.10;0.40;;;10.60;99.90;;;;;;5072735;28;20029;-73
2023/03/24 06:33:34;;;;;;;22.00;1.95;;;10.60;99.90;;;;;;5072408;28;20032;-71
2023/03/24 06:36:00;;;;;;;6.72;1.27;;;10.50;99.90;;;;;;5072207;28;20028;-71
2023/03/24 06:38:27;;;;;;;11.15;1.52;;;10.50;99.90;;;;;;5072151;28;20381;-73
2023/03/24 06:40:53;;;;;;;10.55;1.63;;;10.50;99.90;;;;;;5072296;28;20040;-71
2023/03/24 06:43:19;;;;;;;4.55;1.73;;;10.60;99.90;;;;;;5072163;28;20017;-72
2023/03/24 06:45:45;;;;;;;0.47;0.25;;;10.60;99.90;;;;;;5072030;28;20033;-71
2023/03/24 06:48:18;;;;;;;3.72;0.82;;;10.70;99.90;;;;;;5072192;28;20032;-75
2023/03/24 06:50:44;;;;;;;4.97;1.10;;;10.80;99.90;;;;;;5071940;28;20074;-72
2023/03/24 06:53:10;;;;;;;6.72;1.10;;;10.90;99.90;;;;;;5072045;28;20032;-72
2023/03/24 06:55:37;;;;;;;0.43;0.43;;;10.80;99.90;;;;;;5071863;28;20043;-72
2023/03/24 06:58:04;;;;;;;7.32;1.33;;;10.80;99.90;;;;;;5071365;28;20017;-71
2023/03/24 07:00:54;;;;;;;7.88;1.52;;;10.90;99.90;;;;;;5068542;28;20032;-72
2023/03/24 07:03:27;;;;;;;0.73;0.28;;;10.80;99.90;;;;;;5075778;28;20024;-72
2023/03/24 07:06:13;;;;;;;23.08;2.08;;;11.00;99.90;;;;;;5058736;28;20049;-72
2023/03/24 07:08:39;;;;;;;12.73;1.92;;;11.00;99.90;;;;;;5073419;28;20401;-72
2023/03/24 07:11:08;;;;;;;4.13;1.13;;;11.00;99.90;;;;;;5072254;28;20040;-72
2023/03/24 07:13:34;;;;;;;7.55;1.63;;;10.90;99.90;;;;;;5078915;28;20016;-70
2023/03/24 07:16:03;;;;;;;5.40;1.55;;;11.00;99.90;;;;;;5068466;28;20028;-71
2023/03/24 07:18:29;;;;;;;4.93;1.50;;;11.00;99.90;;;;;;5076556;28;20107;-71
2023/03/24 07:21:00;;;;;;;6.60;0.90;;;11.10;99.90;;;;;;5073819;28;20041;-70
2023/03/24 07:23:27;;;;;;;0.90;0.35;;;11.10;99.90;;;;;;5071369;28;20024;-70
2023/03/24 07:25:59;;;;;;;9.85;0.60;;;11.30;99.90;;;;;;5080195;28;20093;-71
2023/03/24 07:28:49;;;;;;;0.40;0.40;;;11.40;99.90;;;;;;5071370;28;20045;-71
2023/03/24 07:31:41;;;;;;;4.32;1.48;;;11.40;99.90;;;;;;5070031;28;20068;-71
2023/03/24 07:34:10;;;;;;;0.13;0.13;;;11.30;99.90;;;;;;5070807;28;20115;-72
2023/03/24 07:36:38;;;;;;;1.77;1.65;;;11.40;99.90;;;;;;5067941;28;20020;-72
2023/03/24 07:39:08;;;;;;;2.55;1.60;;;11.40;99.90;;;;;;5078294;28;20426;-72
2023/03/24 07:41:35;;;;;;;14.57;2.60;;;11.40;99.90;;;;;;5073739;28;20047;-72
2023/03/24 07:44:07;;;;;;;11.30;1.92;;;11.40;99.90;;;;;;5075765;28;20024;-72
2023/03/24 07:46:38;;;;;;;1.00;0.65;;;11.50;99.90;;;;;;5069331;28;20106;-72
2023/03/24 07:49:05;;;;;;;8.13;1.83;;;11.60;99.90;;;;;;5068718;28;20037;-72
2023/03/24 07:51:31;;;;;;;6.07;1.38;;;11.50;99.90;;;;;;5063883;28;20412;-74
2023/03/24 07:54:01;;;;;;;8.27;0.88;;;11.30;99.90;;;;;;5068645;28;20039;-74
2023/03/24 07:56:46;;;;;;;5.68;0.73;;;11.20;99.90;;;;;;5052197;28;20075;-73
2023/03/24 07:59:12;;;;;;;2.60;1.30;;;11.40;99.90;;;;;;5059619;28;20048;-74
2023/03/24 08:01:49;;;;;;;20.92;2.72;;;11.40;99.90;;;;;;5063040;28;20024;-74
2023/03/24 08:04:19;;;;;;;1.45;0.60;;;11.20;99.90;;;;;;5056101;28;20033;-74
2023/03/24 08:06:53;;;;;;;5.18;1.90;;;11.10;99.90;;;;;;5057525;28;20415;-74
2023/03/24 08:09:19;;;;;;;0.57;0.47;;;11.00;99.90;;;;;;5057684;28;20071;-74
2023/03/24 08:11:45;;;;;;;9.05;1.15;;;11.10;99.90;;;;;;5061951;28;20037;-74
2023/03/24 08:14:11;;;;;;;1.85;0.82;;;11.30;99.90;;;;;;5064338;28;20040;-74
2023/03/24 08:16:37;;;;;;;7.40;2.25;;;11.30;99.90;;;;;;5050354;28;20029;-74
2023/03/24 08:19:03;;;;;;;0.20;0.20;;;11.30;99.90;;;;;;5058474;28;20029;-74
2023/03/24 08:21:29;;;;;;;4.70;0.75;;;11.40;99.90;;;;;;5074136;28;20020;-74
2023/03/24 08:23:55;;;;;;;9.95;1.98;;;11.70;99.90;;;;;;5060782;28;20397;-73
2023/03/24 08:26:21;;;;;;;5.78;1.65;;;11.70;99.90;;;;;;5059361;28;20465;-73
2023/03/24 08:28:48;;;;;;;2.38;0.60;;;11.70;99.90;;;;;;5058328;28;20043;-73
2023/03/24 08:31:14;;;;;;;2.08;1.55;;;11.80;99.90;;;;;;5058782;28;20033;-72
2023/03/24 08:33:40;;;;;;;7.47;1.70;;;11.90;99.90;;;;;;5076209;28;20115;-73
2023/03/24 08:36:07;;;;;;;10.05;2.05;;;11.90;99.90;;;;;;5063116;28;20040;-72
2023/03/24 08:38:33;;;;;;;10.48;0.75;;;11.80;99.90;;;;;;5065589;28;20036;-73
2023/03/24 08:41:01;;;;;;;3.92;1.20;;;12.00;99.90;;;;;;5064455;28;20037;-73
2023/03/24 08:43:30;;;;;;;1.27;0.55;;;12.20;99.90;;;;;;5064636;28;20052;-73
2023/03/24 08:46:00;;;;;;;5.57;0.85;;;12.30;99.90;;;;;;5069540;28;20032;-73
2023/03/24 08:48:27;;;;;;;0.20;0.20;;;12.40;99.90;;;;;;5059997;28;20466;-72
2023/03/24 08:50:54;;;;;;;8.93;2.22;;;12.40;99.90;;;;;;5063787;28;20040;-73
2023/03/24 08:53:20;;;;;;;2.42;1.13;;;12.40;99.90;;;;;;5058365;28;20045;-77
2023/03/24 08:55:47;;;;;;;4.45;1.10;;;12.30;99.90;;;;;;5065014;28;20497;-73
2023/03/24 08:58:18;;;;;;;4.97;1.23;;;12.30;99.90;;;;;;5060502;28;20493;-72
2023/03/24 09:00:46;;;;;;;11.23;1.70;;;12.30;99.90;;;;;;5063630;28;20122;-72
2023/03/24 09:03:16;;;;;;;1.83;0.90;;;12.20;99.90;;;;;;5060842;28;20381;-72
2023/03/24 09:05:43;;;;;;;2.65;0.82;;;12.20;99.90;;;;;;5061405;28;20389;-73
2023/03/24 09:08:10;;;;;;;9.25;2.00;;;12.30;99.90;;;;;;5065182;28;20020;-72
2023/03/24 09:10:35;;;;;;;2.28;1.27;;;12.20;99.90;;;;;;5064695;28;20365;-72
2023/03/24 09:13:03;;;;;;;20.67;1.48;;;12.20;99.90;;;;;;5076289;28;20032;-74
2023/03/24 09:15:28;;;;;;;2.88;1.25;;;12.30;99.90;;;;;;5069048;28;20427;-73
2023/03/24 09:17:54;;;;;;;2.63;1.02;;;12.40;99.90;;;;;;5066692;28;20032;-73
2023/03/24 09:20:20;;;;;;;10.13;2.28;;;12.50;99.90;;;;;;5073329;28;20036;-73
2023/03/24 09:22:46;;;;;;;5.45;1.33;;;12.30;99.90;;;;;;5062888;28;20060;-73
2023/03/24 09:25:15;;;;;;;3.80;2.35;;;12.40;99.90;;;;;;5073613;28;20032;-73
2023/03/24 09:27:41;;;;;;;9.98;1.30;;;12.40;99.90;;;;;;5077910;28;20036;-73
2023/03/24 09:30:08;;;;;;;4.10;2.03;;;12.30;99.90;;;;;;5078214;28;20020;-73
2023/03/24 09:32:35;;;;;;;18.67;1.90;;;12.30;99.90;;;;;;5076548;28;20465;-73
2023/03/24 09:35:01;;;;;;;3.35;0.75;;;12.10;99.90;;;;;;5070363;28;20090;-73
2023/03/24 09:37:31;;;;;;;2.55;1.10;;;12.10;99.90;;;;;;5074067;28;20032;-73
2023/03/24 09:39:58;;;;;;;3.33;1.02;;;12.20;99.90;;;;;;5062728;28;20031;-72
2023/03/24 09:42:29;;;;;;;11.00;0.88;;;12.20;99.90;;;;;;5061120;28;20427;-72
2023/03/24 09:44:57;;;;;;;2.55;0.63;;;12.40;99.90;;;;;;5069196;28;20078;-71
2023/03/24 09:47:30;;;;;;;1.90;1.02;;;12.40;99.90;;;;;;5057620;28;20428;-72
2023/03/24 09:50:32;;;;;;;11.80;2.60;;;12.40;99.90;;;;;;5059185;28;20472;-73
2023/03/24 09:53:20;;;;;;;8.27;1.10;;;12.30;99.90;;;;;;5056749;28;20036;-72
2023/03/24 09:55:48;;;;;;;2.22;1.85;;;12.40;99.90;;;;;;5066922;28;20481;-73
2023/03/24 09:58:14;;;;;;;8.48;1.90;;;12.50;99.90;;;;;;5064697;28;20099;-73
2023/03/24 10:00:41;;;;;;;2.45;0.82;;;12.50;99.90;;;;;;5081352;28;20063;-72
2023/03/24 10:03:20;;;;;;;0.52;0.32;;;12.50;99.90;;;;;;5065414;28;20058;-73
2023/03/24 10:05:51;;;;;;;12.18;1.98;;;12.70;99.90;;;;;;5065160;28;20471;-72
2023/03/24 10:08:20;;;;;;;;;;;12.60;99.90;;;;;;5065128;28;20465;-72
2023/03/24 10:11:04;;;;;;;3.17;0.85;;;12.60;99.90;;;;;;5074065;28;19912;-72
2023/03/24 10:13:53;;;;;;;7.65;1.30;;;12.70;99.90;;;;;;5068171;28;20055;-72
2023/03/24 10:16:24;;;;;;;1.10;0.95;;;12.40;99.90;;;;;;5061924;28;20021;-72
2023/03/24 10:18:59;;;;;;;6.32;1.17;;;12.40;99.90;;;;;;5061662;28;20041;-72
2023/03/24 10:21:26;;;;;;;7.97;2.10;;;12.30;99.90;;;;;;5060754;28;20036;-72
2023/03/24 10:24:13;;;;;;;2.33;1.80;;;12.20;99.90;;;;;;5067733;28;20023;-73
2023/03/24 10:27:01;;;;;;;15.50;2.47;;;12.00;99.90;;;;;;5066538;28;20114;-73
2023/03/24 10:29:33;;;;;;;2.53;0.30;;;11.60;99.90;;;;;;5058471;28;20112;-73
2023/03/24 10:32:11;;;;;;;;;;;11.50;99.90;;;;;;5064976;28;20107;-72
2023/03/24 10:34:38;;;;;;;1.70;1.13;;;11.30;99.90;;;;;;5065378;28;19912;-74
2023/03/24 10:37:04;;;;;;;3.17;1.00;;;11.00;99.90;;;;;;5069342;28;20469;-71
2023/03/24 10:39:31;;;;;;;0.40;0.30;;;10.90;99.90;;;;;;5062395;28;20028;-72
2023/03/24 10:41:59;;;;;;;3.35;1.50;;;10.90;99.90;;;;;;5068619;28;20397;-73
2023/03/24 10:44:26;;;;;;;9.65;1.33;;;11.10;99.90;;;;;;5059325;28;20044;-72
2023/03/24 10:46:57;;;;;;;6.60;1.35;;;11.10;99.90;;;;;;5053517;28;20073;-74
2023/03/24 10:49:24;;;;;;;13.23;2.15;;;11.20;99.90;;;;;;5061282;28;20542;-72
2023/03/24 10:52:02;;;;;;;10.02;1.50;;;11.10;99.90;;;;;;5060737;28;20033;-72
2023/03/24 10:54:29;;;;;;;8.23;0.80;;;11.20;99.90;;;;;;5061880;28;20025;-73
2023/03/24 10:56:59;;;;;;;2.85;1.40;;;11.50;99.90;;;;;;5054584;28;20029;-73
2023/03/24 10:59:32;;;;;;;9.52;0.90;;;11.60;99.90;;;;;;5049692;28;20033;-74
2023/03/24 11:02:22;;;;;;;7.38;1.30;;;11.40;99.90;;;;;;5058976;28;20566;-74
2023/03/24 11:04:58;;;;;;;7.50;1.30;;;11.40;99.90;;;;;;5058070;28;20120;-73
2023/03/24 11:07:32;;;;;;;1.15;0.90;;;11.40;99.90;;;;;;5065779;28;20469;-73
2023/03/24 11:10:12;;;;;;;4.50;0.93;;;11.20;99.90;;;;;;5064104;28;20061;-72
2023/03/24 11:13:03;;;;;;;0.73;0.43;;;11.00;99.90;;;;;;5067533;28;20477;-72
2023/03/24 11:15:31;;;;;;;0.53;0.53;;;11.10;99.90;;;;;;5053354;28;20051;-73
2023/03/24 11:18:03;;;;;;;8.02;1.25;;;11.00;99.90;;;;;;5056865;28;20290;-76
2023/03/24 11:20:35;;;;;;;0.10;0.10;;;11.00;99.90;;;;;;5059569;28;20050;-73
2023/03/24 11:23:00;;;;;;;2.03;1.10;;;11.20;99.90;;;;;;5070971;28;20036;-71
2023/03/24 11:25:28;;;;;;;0.10;0.10;;;11.30;99.90;;;;;;5077127;28;20040;-72
2023/03/24 11:28:04;;;;;;;1.83;0.43;;;11.80;99.90;;;;;;5071631;28;20032;-71
2023/03/24 11:30:44;;;;;;;8.00;1.02;;;12.20;99.90;;;;;;5076322;28;20383;-74
2023/03/24 11:33:17;;;;;;;2.38;0.90;;;12.60;99.90;;;;;;5074237;28;20025;-72
2023/03/24 11:35:43;;;;;;;10.40;1.85;;;12.90;99.90;;;;;;5072821;28;20050;-72
2023/03/24 11:38:15;;;;;;;0.40;0.40;;;13.00;99.90;;;;;;5080297;28;20115;-72
2023/03/24 11:40:53;;;;;;;3.15;1.15;;;13.60;99.90;;;;;;5071063;28;20080;-73
2023/03/24 11:43:20;;;;;;;4.13;1.08;;;13.80;99.90;;;;;;5076262;28;20036;-72
2023/03/24 11:46:07;;;;;;;0.15;0.15;;;14.20;99.90;;;;;;5073333;28;20103;-73
2023/03/24 11:48:39;;;;;;;0.03;0.03;;;14.80;99.90;;;;;;5074848;28;20392;-72
2023/03/24 11:51:10;;;;;;;2.50;1.05;;;15.00;99.90;;;;;;5071126;28;20095;-72
2023/03/24 11:53:45;;;;;;;0.93;0.30;;;15.40;99.90;;;;;;5070159;28;20027;-73
2023/03/24 11:56:39;;;;;;;2.05;0.50;;;14.90;99.90;;;;;;5071757;28;20043;-73
2023/03/24 11:59:30;;;;;;;10.02;0.98;;;15.30;99.90;;;;;;5070678;28;20444;-72
2023/03/24 12:02:01;;;;;;;4.45;0.90;;;14.00;99.90;;;;;;5072418;28;20033;-73
2023/03/24 12:04:53;;;;;;;2.70;1.42;;;14.10;99.90;;;;;;5074972;28;20051;-73
2023/03/24 12:07:27;;;;;;;7.72;1.80;;;13.70;99.90;;;;;;5064355;28;20021;-73
2023/03/24 12:09:57;;;;;;;19.45;1.35;;;13.70;99.90;;;;;;5076170;28;20032;-72
2023/03/24 12:12:39;;;;;;;0.80;0.32;;;13.50;99.90;;;;;;5076421;28;20017;-73
2023/03/24 12:15:11;;;;;;;4.75;0.35;;;13.40;99.90;;;;;;5075076;28;20032;-73
2023/03/24 12:17:41;;;;;;;;;;;13.40;99.90;;;;;;5076705;28;20056;-73
2023/03/24 12:20:16;;;;;;;2.35;0.47;;;13.20;99.90;;;;;;5076306;28;20276;-73
2023/03/24 12:23:06;;;;;;;0.40;0.40;;;13.20;99.90;;;;;;5074964;28;20480;-73
2023/03/24 12:26:19;;;;;;;0.90;0.32;;;12.90;99.90;;;;;;5075815;28;20047;-72
2023/03/24 12:28:54;;;;;;;1.45;1.35;;;13.20;99.90;;;;;;5035908;28;20152;-73
2023/03/24 12:31:40;;;;;;;2.17;0.47;;;13.90;99.90;;;;;;5065197;28;20472;-73
2023/03/24 12:34:12;;;;;;;0.30;0.30;;;14.80;99.90;;;;;;5076009;28;20029;-73
2023/03/24 12:36:55;;;;;;;0.30;0.30;;;14.50;99.90;;;;;;5076145;28;20036;-73
2023/03/24 12:39:30;;;;;;;2.33;0.70;;;14.90;99.90;;;;;;5074247;28;20043;-73
2023/03/24 12:42:05;;;;;;;7.25;1.15;;;14.40;99.90;;;;;;5075547;28;20033;-73
2023/03/24 12:45:02;;;;;;;5.45;1.88;;;15.30;99.90;;;;;;5074574;28;20044;-73
2023/03/24 12:47:40;;;;;;;5.45;0.77;;;14.40;99.90;;;;;;5075538;28;20087;-73
2023/03/24 12:50:24;;;;;;;8.82;1.75;;;14.30;99.90;;;;;;5075840;28;20032;-73
2023/03/24 12:53:06;;;;;;;1.25;0.88;;;13.80;99.90;;;;;;5073935;28;20496;-73
2023/03/24 12:55:37;;;;;;;4.50;1.15;;;13.50;99.90;;;;;;5075660;28;20461;-73
2023/03/24 12:58:22;;;;;;;1.98;0.73;;;13.00;99.90;;;;;;5075438;28;20504;-73
2023/03/24 13:01:31;;;;;;;3.95;1.40;;;12.90;99.90;;;;;;5075602;28;20525;-73
2023/03/24 13:03:59;;;;;;;1.50;0.85;;;12.90;99.90;;;;;;5063975;28;20048;-73
2023/03/24 13:06:47;;;;;;;1.58;0.70;;;12.70;99.90;;;;;;5075312;28;20537;-73
2023/03/24 13:09:35;;;;;;;3.70;1.00;;;12.80;99.90;;;;;;5074899;28;20078;-73
2023/03/24 13:12:11;;;;;;;2.47;0.77;;;12.80;99.90;;;;;;5075202;28;20461;-74
2023/03/24 13:15:11;;;;;;;1.08;0.93;;;12.60;99.90;;;;;;5073254;28;20106;-73
2023/03/24 13:17:56;;;;;;;1.23;0.90;;;13.40;99.90;;;;;;5075087;28;20082;-73
2023/03/24 13:20:31;;;;;;;0.70;0.25;;;14.70;99.90;;;;;;5075164;28;20090;-73
2023/03/24 13:23:18;;;;;;;1.90;0.50;;;15.70;99.90;;;;;;5074941;28;20111;-74